createdAt,value
2017-08-02T00:01:15.380Z,3.47
2017-08-02T00:03:43.544Z,2.83
2017-08-02T00:06:11.700Z,3.43
2017-08-02T00:08:40.600Z,3.27
2017-08-02T00:11:09.493Z,3.50
2017-08-02T00:13:38.400Z,3.00
2017-08-02T00:16:06.536Z,3.70
2017-08-02T00:18:34.668Z,3.77
2017-08-02T00:21:02.813Z,3.73
2017-08-02T00:23:31.775Z,2.90
2017-08-02T00:25:59.920Z,2.70
2017-08-02T00:28:28.059Z,2.93
2017-08-02T00:30:56.184Z,3.20
2017-08-02T00:33:24.317Z,3.20
2017-08-02T00:35:52.444Z,2.77
2017-08-02T00:38:20.643Z,3.23
2017-08-02T00:40:49.528Z,3.60
2017-08-02T00:43:23.181Z,3.50
2017-08-02T00:45:51.556Z,4.00
2017-08-02T00:48:19.692Z,3.10
2017-08-02T00:50:48.595Z,3.80
2017-08-02T00:53:17.497Z,3.20
2017-08-02T00:55:45.644Z,4.10
2017-08-02T00:58:14.541Z,3.30
2017-08-02T01:00:43.453Z,3.13
2017-08-02T01:03:11.604Z,3.50
2017-08-02T01:05:40.484Z,2.97
2017-08-02T01:08:08.624Z,3.70
2017-08-02T01:10:36.749Z,3.47
2017-08-02T01:13:04.864Z,3.30
2017-08-02T01:15:32.983Z,3.43
2017-08-02T01:18:01.275Z,3.67
2017-08-02T01:20:30.173Z,3.00
2017-08-02T01:22:59.079Z,3.67
2017-08-02T01:25:27.218Z,3.93
2017-08-02T01:27:55.447Z,3.37
2017-08-02T01:30:23.572Z,3.10
2017-08-02T01:32:51.692Z,3.57
2017-08-02T01:35:19.816Z,3.60
2017-08-02T01:37:48.008Z,3.00
2017-08-02T01:40:16.931Z,3.50
2017-08-02T01:42:45.070Z,3.60
2017-08-02T01:45:13.957Z,3.43
2017-08-02T01:47:42.856Z,3.00
2017-08-02T01:50:11.748Z,3.80
2017-08-02T01:52:40.647Z,3.87
2017-08-02T01:55:09.540Z,3.77
2017-08-02T01:57:38.424Z,3.40
2017-08-02T02:00:07.404Z,3.60
2017-08-02T02:02:35.528Z,3.87
2017-08-02T02:05:03.672Z,3.40
2017-08-02T02:07:31.836Z,4.00
2017-08-02T02:10:00.735Z,3.30
2017-08-02T02:12:29.625Z,3.20
2017-08-02T02:14:59.142Z,3.70
2017-08-02T02:17:27.296Z,3.90
2017-08-02T02:19:55.430Z,4.23
2017-08-02T02:22:23.532Z,3.60
2017-08-02T02:24:51.652Z,3.50
2017-08-02T02:27:19.784Z,3.60
2017-08-02T02:29:47.917Z,3.97
2017-08-02T02:32:16.036Z,3.20
2017-08-02T02:34:44.169Z,3.83
2017-08-02T02:37:12.289Z,3.30
2017-08-02T02:39:41.172Z,3.30
2017-08-02T02:42:09.311Z,3.30
2017-08-02T02:44:37.423Z,3.60
2017-08-02T02:47:05.549Z,3.67
2017-08-02T02:49:33.657Z,3.50
2017-08-02T02:52:02.470Z,3.30
2017-08-02T02:54:31.348Z,3.10
2017-08-02T02:56:59.468Z,3.87
2017-08-02T02:59:27.652Z,3.43
2017-08-02T03:01:56.124Z,4.20
2017-08-02T03:04:24.987Z,3.20
2017-08-02T03:06:53.910Z,3.10
2017-08-02T03:09:22.056Z,3.10
2017-08-02T03:11:50.951Z,3.43
2017-08-02T03:14:19.087Z,3.47
2017-08-02T03:16:47.268Z,3.50
2017-08-02T03:19:16.325Z,3.27
2017-08-02T03:21:44.456Z,4.03
2017-08-02T03:24:13.364Z,2.73
2017-08-02T03:26:41.495Z,3.03
2017-08-02T03:29:09.632Z,3.43
2017-08-02T03:31:37.766Z,3.00
2017-08-02T03:34:05.898Z,2.63
2017-08-02T03:36:34.024Z,2.57
2017-08-02T03:39:03.044Z,2.60
2017-08-02T03:41:32.404Z,2.53
2017-08-02T03:44:00.515Z,2.50
2017-08-02T03:46:28.647Z,3.43
2017-08-02T03:48:56.794Z,2.23
2017-08-02T03:51:25.041Z,2.83
2017-08-02T03:53:53.168Z,2.43
2017-08-02T03:56:21.380Z,2.90
2017-08-02T03:58:49.576Z,2.60
2017-08-02T04:01:17.724Z,2.70
2017-08-02T04:03:47.011Z,2.93
2017-08-02T04:06:16.028Z,2.70
2017-08-02T04:08:44.931Z,2.43
2017-08-02T04:11:13.111Z,2.33
2017-08-02T04:13:41.246Z,2.30
2017-08-02T04:16:09.375Z,2.43
2017-08-02T04:18:37.601Z,2.50
2017-08-02T04:21:06.841Z,2.27
2017-08-02T04:23:34.951Z,2.63
2017-08-02T04:26:03.079Z,2.40
2017-08-02T04:28:31.205Z,2.37
2017-08-02T04:30:59.403Z,2.43
2017-08-02T04:33:28.290Z,2.70
2017-08-02T04:35:57.209Z,2.50
2017-08-02T04:38:25.333Z,2.20
2017-08-02T04:40:53.448Z,2.47
2017-08-02T04:43:21.585Z,2.80
2017-08-02T04:45:49.740Z,2.50
2017-08-02T04:48:17.859Z,2.17
2017-08-02T04:50:46.816Z,2.60
2017-08-02T04:53:14.964Z,2.07
2017-08-02T04:55:43.109Z,2.20
2017-08-02T04:58:11.337Z,2.80
2017-08-02T05:00:40.082Z,2.80
2017-08-02T05:03:08.212Z,2.43
2017-08-02T05:05:36.360Z,2.37
2017-08-02T05:08:04.512Z,2.40
2017-08-02T05:10:32.632Z,2.20
2017-08-02T05:13:00.759Z,2.50
2017-08-02T05:15:28.943Z,2.30
2017-08-02T05:17:57.079Z,2.87
2017-08-02T05:20:25.956Z,2.53
2017-08-02T05:22:54.090Z,3.00
2017-08-02T05:25:22.214Z,2.77
2017-08-02T05:27:51.115Z,2.30
2017-08-02T05:30:20.020Z,3.17
2017-08-02T05:32:53.336Z,3.07
2017-08-02T05:35:21.476Z,2.80
2017-08-02T05:37:50.379Z,2.67
2017-08-02T05:40:18.512Z,3.00
2017-08-02T05:42:46.644Z,3.10
2017-08-02T05:45:15.370Z,3.13
2017-08-02T05:47:43.495Z,3.30
2017-08-02T05:50:11.636Z,3.07
2017-08-02T05:52:39.757Z,2.60
2017-08-02T05:55:07.880Z,2.53
2017-08-02T05:57:36.063Z,2.90
2017-08-02T06:00:04.974Z,3.47
2017-08-02T06:02:33.108Z,3.40
2017-08-02T06:05:02.325Z,3.00
2017-08-02T06:07:31.208Z,3.23
2017-08-02T06:09:59.328Z,2.83
2017-08-02T06:12:27.492Z,2.90
2017-08-02T06:14:55.729Z,2.90
2017-08-02T06:17:23.863Z,3.33
2017-08-02T06:19:52.004Z,3.07
2017-08-02T06:22:20.971Z,2.93
2017-08-02T06:24:49.138Z,2.70
2017-08-02T06:27:17.300Z,2.80
2017-08-02T06:29:45.427Z,3.17
2017-08-02T06:32:14.328Z,2.63
2017-08-02T06:34:42.461Z,2.90
2017-08-02T06:37:10.629Z,2.90
2017-08-02T06:39:38.756Z,2.43
2017-08-02T06:42:07.181Z,2.70
2017-08-02T06:44:35.315Z,2.40
2017-08-02T06:47:03.425Z,3.30
2017-08-02T06:49:31.559Z,2.90
2017-08-02T06:51:59.704Z,2.73
2017-08-02T06:54:28.604Z,2.90
2017-08-02T06:56:57.592Z,2.93
2017-08-02T06:59:25.728Z,2.30
2017-08-02T07:01:53.912Z,2.83
2017-08-02T07:04:22.050Z,2.40
2017-08-02T07:06:51.171Z,3.07
2017-08-02T07:09:22.340Z,2.90
2017-08-02T07:11:50.507Z,3.57
2017-08-02T07:14:18.657Z,2.80
2017-08-02T07:16:46.852Z,2.47
2017-08-02T07:19:15.087Z,3.00
2017-08-02T07:21:43.229Z,3.23
2017-08-02T07:24:11.380Z,3.10
2017-08-02T07:26:39.510Z,2.30
2017-08-02T07:29:07.624Z,2.43
2017-08-02T07:31:35.776Z,2.90
2017-08-02T07:34:04.063Z,2.47
2017-08-02T07:36:37.549Z,2.90
2017-08-02T07:39:05.863Z,3.43
2017-08-02T07:41:34.053Z,2.80
2017-08-02T07:44:02.969Z,2.80
2017-08-02T07:46:31.100Z,2.90
2017-08-02T07:48:59.268Z,2.80
2017-08-02T07:51:27.413Z,2.80
2017-08-02T07:53:55.608Z,2.50
2017-08-02T07:56:23.759Z,2.70
2017-08-02T07:58:52.042Z,2.87
2017-08-02T08:01:21.123Z,3.33
2017-08-02T08:03:49.259Z,3.10
2017-08-02T08:06:17.401Z,3.10
2017-08-02T08:08:45.619Z,3.50
2017-08-02T08:11:14.504Z,3.20
2017-08-02T08:13:43.426Z,2.97
2017-08-02T08:16:11.576Z,3.50
2017-08-02T08:18:41.132Z,2.90
2017-08-02T08:21:09.284Z,3.80
2017-08-02T08:23:37.437Z,3.77
2017-08-02T08:26:05.568Z,3.17
2017-08-02T08:28:33.724Z,3.30
2017-08-02T08:31:01.881Z,3.70
2017-08-02T08:33:30.020Z,3.53
2017-08-02T08:35:59.525Z,3.67
2017-08-02T08:38:27.660Z,4.10
2017-08-02T08:40:55.791Z,3.47
2017-08-02T08:43:23.940Z,3.20
2017-08-02T08:45:52.066Z,3.30
2017-08-02T08:48:20.214Z,3.80
2017-08-02T08:50:48.405Z,3.87
2017-08-02T08:53:16.555Z,3.93
2017-08-02T08:55:44.693Z,3.83
2017-08-02T08:58:12.812Z,4.80
2017-08-02T09:00:41.749Z,3.93
2017-08-02T09:03:09.884Z,4.17
2017-08-02T09:05:38.086Z,4.40
2017-08-02T09:08:06.224Z,4.40
2017-08-02T09:10:35.112Z,5.30
2017-08-02T09:13:04.017Z,4.70
2017-08-02T09:15:32.171Z,4.47
2017-08-02T09:18:01.083Z,4.33
2017-08-02T09:20:29.245Z,4.40
2017-08-02T09:22:57.380Z,4.60
2017-08-02T09:25:25.635Z,4.40
2017-08-02T09:27:54.217Z,4.80
2017-08-02T09:30:22.356Z,4.40
2017-08-02T09:32:50.516Z,5.17
2017-08-02T09:35:18.664Z,4.80
2017-08-02T09:37:46.800Z,4.70
2017-08-02T09:40:14.943Z,4.70
2017-08-02T09:42:43.096Z,4.53
2017-08-02T09:45:11.248Z,4.80
2017-08-02T09:47:39.368Z,4.80
2017-08-02T09:50:08.276Z,4.77
2017-08-02T09:52:37.171Z,4.30
2017-08-02T09:55:05.327Z,4.90
2017-08-02T09:57:34.224Z,4.17
2017-08-02T10:00:03.189Z,4.80
2017-08-02T10:02:31.604Z,4.70
2017-08-02T10:05:00.498Z,4.40
2017-08-02T10:07:29.388Z,4.80
2017-08-02T10:09:58.368Z,4.00
2017-08-02T10:12:27.281Z,4.47
2017-08-02T10:14:55.408Z,4.33
2017-08-02T10:17:23.549Z,4.40
2017-08-02T10:19:51.716Z,5.27
2017-08-02T10:22:19.844Z,5.40
2017-08-02T10:24:47.990Z,5.03
2017-08-02T10:27:16.121Z,4.00
2017-08-02T10:29:45.006Z,5.20
2017-08-02T10:32:13.137Z,4.30
2017-08-02T10:34:41.280Z,4.60
2017-08-02T10:37:09.408Z,4.30
2017-08-02T10:39:37.542Z,4.53
2017-08-02T10:42:05.671Z,4.70
2017-08-02T10:44:34.571Z,4.43
2017-08-02T10:47:03.596Z,3.87
2017-08-02T10:49:31.740Z,4.90
2017-08-02T10:52:00.647Z,4.03
2017-08-02T10:54:28.840Z,5.10
2017-08-02T10:56:57.219Z,4.20
2017-08-02T10:59:25.332Z,3.90
2017-08-02T11:01:53.485Z,4.40
2017-08-02T11:04:21.618Z,4.97
2017-08-02T11:06:49.872Z,5.00
2017-08-02T11:09:18.793Z,4.97
2017-08-02T11:11:46.913Z,5.17
2017-08-02T11:14:15.052Z,4.77
2017-08-02T11:16:43.185Z,4.83
2017-08-02T11:19:12.209Z,4.97
2017-08-02T11:21:40.340Z,5.50
2017-08-02T11:24:08.537Z,5.23
2017-08-02T11:26:37.528Z,5.27
2017-08-02T11:29:06.441Z,5.13
2017-08-02T11:31:34.589Z,4.57
2017-08-02T11:34:02.752Z,4.80
2017-08-02T11:36:30.896Z,5.90
2017-08-02T11:38:59.021Z,4.90
2017-08-02T11:41:27.928Z,6.67
2017-08-02T11:43:56.072Z,5.17
2017-08-02T11:46:24.208Z,5.27
2017-08-02T11:48:53.424Z,5.50
2017-08-02T11:51:21.552Z,6.10
2017-08-02T11:53:50.284Z,5.77
2017-08-02T11:56:18.392Z,5.67
2017-08-02T11:58:47.297Z,5.90
2017-08-02T12:01:16.228Z,4.73
2017-08-02T12:03:44.371Z,5.57
2017-08-02T12:06:12.720Z,5.67
2017-08-02T12:08:40.916Z,5.57
2017-08-02T12:11:09.846Z,6.20
2017-08-02T12:13:37.977Z,5.97
2017-08-02T12:16:06.915Z,5.53
2017-08-02T12:18:35.044Z,5.40
2017-08-02T12:21:04.078Z,5.50
2017-08-02T12:23:32.184Z,5.37
2017-08-02T12:26:00.376Z,4.63
2017-08-02T12:28:28.500Z,5.50
2017-08-02T12:30:56.680Z,5.90
2017-08-02T12:33:24.884Z,6.53
2017-08-02T12:35:53.052Z,6.23
2017-08-02T12:38:21.179Z,5.57
2017-08-02T12:40:49.328Z,5.60
2017-08-02T12:43:17.465Z,5.47
2017-08-02T12:45:45.604Z,6.20
2017-08-02T12:48:13.816Z,5.27
2017-08-02T12:50:41.948Z,5.90
2017-08-02T12:53:10.204Z,6.03
2017-08-02T12:55:39.323Z,5.23
2017-08-02T12:58:07.442Z,4.80
2017-08-02T13:00:35.649Z,6.87
2017-08-02T13:03:03.779Z,6.20
2017-08-02T13:05:31.965Z,6.77
2017-08-02T13:08:00.122Z,6.77
2017-08-02T13:10:28.265Z,6.00
2017-08-02T13:12:56.392Z,6.13
2017-08-02T13:15:24.574Z,5.90
2017-08-02T13:17:52.727Z,5.13
2017-08-02T13:20:20.894Z,5.40
2017-08-02T13:22:49.020Z,6.67
2017-08-02T13:25:17.144Z,5.80
2017-08-02T13:27:45.268Z,6.97
2017-08-02T13:30:14.172Z,5.50
2017-08-02T13:32:43.424Z,7.07
2017-08-02T13:35:11.593Z,7.30
2017-08-02T13:37:40.000Z,6.00
2017-08-02T13:40:08.163Z,6.37
2017-08-02T13:42:36.305Z,5.80
2017-08-02T13:45:04.436Z,6.53
2017-08-02T13:47:32.567Z,6.77
2017-08-02T13:50:00.701Z,7.23
2017-08-02T13:52:29.596Z,6.90
2017-08-02T13:54:57.768Z,6.30
2017-08-02T13:57:26.689Z,6.50
2017-08-02T13:59:54.822Z,6.40
2017-08-02T14:02:23.720Z,7.30
2017-08-02T14:04:52.626Z,7.63
2017-08-02T14:07:25.601Z,7.10
2017-08-02T14:09:53.712Z,5.90
2017-08-02T14:12:22.194Z,7.90
2017-08-02T14:14:50.368Z,6.63
2017-08-02T14:17:18.508Z,7.00
2017-08-02T14:19:46.656Z,6.53
2017-08-02T14:22:14.836Z,6.10
2017-08-02T14:24:42.980Z,7.40
2017-08-02T14:27:11.132Z,7.00
2017-08-02T14:29:39.268Z,6.60
2017-08-02T14:32:08.175Z,6.53
2017-08-02T14:34:37.119Z,6.40
2017-08-02T14:37:05.253Z,6.50
2017-08-02T14:39:33.376Z,5.93
2017-08-02T14:42:01.576Z,6.07
2017-08-02T14:44:29.730Z,7.50
2017-08-02T14:46:57.871Z,6.50
2017-08-02T14:49:26.004Z,6.63
2017-08-02T14:51:54.236Z,7.20
2017-08-02T14:54:22.371Z,6.10
2017-08-02T14:56:50.516Z,6.53
2017-08-02T14:59:18.653Z,8.10
2017-08-02T15:01:46.792Z,7.93
2017-08-02T15:04:15.720Z,7.97
2017-08-02T15:06:43.880Z,7.40
2017-08-02T15:09:12.065Z,5.70
2017-08-02T15:11:40.192Z,6.90
2017-08-02T15:14:09.084Z,7.60
2017-08-02T15:16:37.997Z,6.47
2017-08-02T15:19:06.127Z,7.00
2017-08-02T15:21:34.283Z,6.13
2017-08-02T15:24:02.444Z,7.63
2017-08-02T15:26:30.591Z,7.17
2017-08-02T15:28:59.555Z,7.60
2017-08-02T15:31:27.774Z,7.13
2017-08-02T15:33:55.908Z,6.57
2017-08-02T15:36:24.039Z,6.77
2017-08-02T15:38:52.164Z,8.10
2017-08-02T15:41:21.080Z,6.47
2017-08-02T15:43:49.227Z,6.40
2017-08-02T15:46:17.352Z,7.30
2017-08-02T15:48:45.495Z,6.90
2017-08-02T15:51:14.401Z,6.90
2017-08-02T15:53:42.546Z,6.80
2017-08-02T15:56:10.684Z,6.70
2017-08-02T15:58:39.393Z,6.50
2017-08-02T16:01:07.511Z,6.20
2017-08-02T16:03:35.639Z,6.90
2017-08-02T16:06:03.780Z,6.40
2017-08-02T16:08:31.916Z,6.07
2017-08-02T16:11:00.827Z,6.10
2017-08-02T16:13:28.962Z,8.30
2017-08-02T16:15:57.107Z,6.73
2017-08-02T16:18:25.236Z,6.67
2017-08-02T16:20:54.204Z,6.73
2017-08-02T16:23:22.336Z,6.30
2017-08-02T16:25:50.453Z,6.57
2017-08-02T16:28:18.592Z,6.57
2017-08-02T16:33:20.740Z,7.03
2017-08-02T16:35:49.152Z,6.20
2017-08-02T16:38:17.280Z,6.70
2017-08-02T16:40:46.184Z,6.30
2017-08-02T16:43:15.084Z,6.10
2017-08-02T16:45:43.227Z,6.33
2017-08-02T16:48:11.379Z,5.93
2017-08-02T16:50:39.508Z,6.90
2017-08-02T16:53:08.468Z,6.33
2017-08-02T16:55:36.610Z,7.60
2017-08-02T16:58:04.814Z,5.87
2017-08-02T17:00:32.992Z,6.30
2017-08-02T17:03:01.115Z,5.90
2017-08-02T17:05:29.965Z,5.97
2017-08-02T17:07:58.104Z,6.77
2017-08-02T17:10:26.261Z,5.93
2017-08-02T17:12:54.439Z,6.40
2017-08-02T17:15:22.547Z,6.27
2017-08-02T17:17:50.686Z,6.63
2017-08-02T17:20:18.812Z,6.27
2017-08-02T17:22:47.707Z,6.70
2017-08-02T17:25:15.845Z,5.90
2017-08-02T17:27:43.960Z,6.80
2017-08-02T17:30:13.225Z,6.70
2017-08-02T17:32:41.340Z,6.67
2017-08-02T17:35:10.236Z,5.80
2017-08-02T17:37:38.374Z,5.97
2017-08-02T17:40:06.517Z,5.97
2017-08-02T17:42:34.640Z,6.67
2017-08-02T17:45:02.783Z,7.20
2017-08-02T17:47:30.897Z,6.60
2017-08-02T17:49:59.788Z,6.13
2017-08-02T17:52:28.684Z,6.47
2017-08-02T17:54:57.584Z,6.57
2017-08-02T17:57:25.734Z,5.57
2017-08-02T17:59:53.883Z,6.30
2017-08-02T18:02:22.112Z,7.00
2017-08-02T18:04:50.392Z,6.33
2017-08-02T18:07:18.534Z,7.20
2017-08-02T18:09:46.656Z,6.53
2017-08-02T18:12:14.864Z,6.90
2017-08-02T18:14:42.980Z,6.13
2017-08-02T18:17:11.860Z,6.40
2017-08-02T18:19:40.847Z,6.80
2017-08-02T18:22:09.022Z,6.63
2017-08-02T18:24:37.152Z,6.73
2017-08-02T18:27:05.280Z,6.40
2017-08-02T18:29:34.192Z,6.30
2017-08-02T18:32:02.317Z,7.53
2017-08-02T18:34:30.571Z,6.03
2017-08-02T18:36:58.712Z,5.83
2017-08-02T18:39:26.843Z,6.90
2017-08-02T18:41:54.985Z,6.67
2017-08-02T18:44:23.111Z,6.67
2017-08-02T18:46:51.268Z,7.33
2017-08-02T18:49:20.438Z,7.13
2017-08-02T18:51:48.571Z,7.10
2017-08-02T18:54:17.544Z,6.73
2017-08-02T18:56:45.659Z,6.73
2017-08-02T18:59:13.785Z,6.67
2017-08-02T19:01:41.912Z,6.87
2017-08-02T19:04:10.056Z,6.77
2017-08-02T19:06:38.956Z,6.33
2017-08-02T19:09:07.848Z,5.83
2017-08-02T19:11:36.840Z,7.47
2017-08-02T19:14:05.741Z,6.87
2017-08-02T19:16:34.616Z,6.37
2017-08-02T19:19:03.592Z,6.80
2017-08-02T19:21:31.721Z,6.03
2017-08-02T19:24:02.317Z,6.33
2017-08-02T19:26:31.202Z,6.30
2017-08-02T19:28:59.348Z,6.10
2017-08-02T19:31:27.493Z,6.60
2017-08-02T19:33:55.636Z,7.77
2017-08-02T19:36:24.532Z,7.20
2017-08-02T19:38:53.423Z,6.23
2017-08-02T19:41:22.543Z,6.47
2017-08-02T19:43:50.665Z,7.63
2017-08-02T19:46:18.802Z,7.37
2017-08-02T19:48:46.932Z,6.90
2017-08-02T19:51:15.816Z,7.40
2017-08-02T19:53:43.955Z,7.30
2017-08-02T19:56:12.085Z,6.40
2017-08-02T19:58:41.968Z,7.47
2017-08-02T20:01:10.088Z,6.90
2017-08-02T20:03:38.232Z,6.60
2017-08-02T20:06:06.373Z,6.77
2017-08-02T20:08:34.496Z,6.30
2017-08-02T20:11:03.409Z,7.73
2017-08-02T20:13:31.564Z,7.67
2017-08-02T20:16:00.312Z,6.97
2017-08-02T20:18:28.466Z,6.90
2017-08-02T20:20:56.594Z,7.27
2017-08-02T20:23:25.499Z,7.40
2017-08-02T20:25:53.954Z,7.10
2017-08-02T20:28:22.080Z,7.60
2017-08-02T20:30:50.216Z,7.03
2017-08-02T20:33:19.141Z,8.30
2017-08-02T20:35:47.277Z,8.03
2017-08-02T20:38:16.184Z,7.57
2017-08-02T20:40:44.304Z,7.80
2017-08-02T20:43:12.451Z,7.50
2017-08-02T20:45:40.596Z,8.13
2017-08-02T20:48:09.487Z,7.03
2017-08-02T20:50:38.397Z,7.10
2017-08-02T20:53:06.528Z,6.97
2017-08-02T20:55:39.731Z,8.03
2017-08-02T20:58:08.166Z,7.57
2017-08-02T21:00:36.304Z,8.30
2017-08-02T21:03:05.220Z,6.53
2017-08-02T21:05:33.344Z,7.07
2017-08-02T21:08:01.492Z,6.23
2017-08-02T21:10:29.640Z,7.60
2017-08-02T21:12:57.764Z,8.07
2017-08-02T21:15:25.903Z,6.83
2017-08-02T21:17:54.060Z,6.67
2017-08-02T21:20:22.203Z,7.17
2017-08-02T21:22:50.404Z,6.93
2017-08-02T21:25:18.549Z,7.60
2017-08-02T21:27:48.040Z,7.53
2017-08-02T21:30:16.178Z,7.60
2017-08-02T21:32:44.800Z,6.50
2017-08-02T21:35:12.936Z,7.97
2017-08-02T21:37:41.083Z,7.13
2017-08-02T21:40:09.972Z,7.57
2017-08-02T21:42:38.877Z,7.40
2017-08-02T21:45:07.011Z,7.33
2017-08-02T21:47:35.156Z,7.33
2017-08-02T21:50:03.392Z,7.73
2017-08-02T21:52:32.372Z,7.50
2017-08-02T21:55:01.860Z,7.87
2017-08-02T21:57:30.038Z,8.03
2017-08-02T21:59:58.232Z,7.40
2017-08-02T22:02:27.272Z,7.50
2017-08-02T22:04:55.404Z,7.97
2017-08-02T22:07:24.304Z,7.20
2017-08-02T22:09:53.196Z,7.67
2017-08-02T22:12:22.105Z,7.50
2017-08-02T22:14:50.212Z,7.63
2017-08-02T22:17:18.345Z,7.70
2017-08-02T22:19:46.475Z,7.80
2017-08-02T22:22:14.703Z,8.10
2017-08-02T22:24:42.869Z,7.67
2017-08-02T22:27:11.745Z,7.97
2017-08-02T22:29:40.696Z,7.50
2017-08-02T22:32:08.812Z,7.50
2017-08-02T22:34:37.752Z,6.97
2017-08-02T22:37:05.876Z,7.60
2017-08-02T22:39:33.984Z,6.57
2017-08-02T22:42:02.108Z,7.70
2017-08-02T22:44:30.232Z,7.87
2017-08-02T22:46:58.358Z,7.50
2017-08-02T22:49:26.480Z,6.97
2017-08-02T22:51:54.596Z,7.80
2017-08-02T22:54:22.704Z,6.87
2017-08-02T22:56:50.820Z,7.77
2017-08-02T22:59:18.940Z,7.27
2017-08-02T23:01:47.830Z,6.70
2017-08-02T23:04:16.720Z,6.73
2017-08-02T23:06:45.441Z,6.63
2017-08-02T23:09:13.577Z,7.53
2017-08-02T23:11:42.460Z,6.60
2017-08-02T23:14:10.580Z,7.20
2017-08-02T23:16:38.696Z,7.57
2017-08-02T23:19:06.941Z,6.70
2017-08-02T23:21:35.060Z,7.67
2017-08-02T23:24:03.316Z,6.50
2017-08-02T23:26:31.444Z,7.40
2017-08-02T23:28:59.568Z,7.10
2017-08-02T23:31:27.672Z,7.10
2017-08-02T23:33:56.576Z,6.80
2017-08-02T23:36:24.689Z,6.50
2017-08-02T23:38:52.826Z,7.53
2017-08-02T23:41:20.957Z,7.47
2017-08-02T23:43:49.072Z,6.80
2017-08-02T23:46:17.196Z,7.10
2017-08-02T23:48:45.333Z,6.50
2017-08-02T23:51:13.464Z,7.93
2017-08-02T23:53:41.572Z,7.10
2017-08-02T23:56:09.696Z,6.77
2017-08-02T23:58:37.809Z,6.60
